Accueil
METAR-TAF:

METAR-TAF

Aéroports :

Lleida-Alguaire

Lleida, Espagne

latitude: 41-43-40N, longitude: 000-32-09E, altitude: 350 m

METAR: absent

Heure: 15:54 (13:54 UTC)

Prévision

Le bulletin a été fait il y a 23 heures et 54 minutes, à 14:00 UTC
Prévision valable du 17 à 15 UTC au 18 à 15 UTC
Vent 12 kt de ouest/sud-ouest
Visibilité 10 km ou plus
Quelques nuages à une hauteur de 4000 ft
Temporairement
du 17 à 21 UTC au 17 à 23 UTC
Vent 7 kt de sud
Evoluant progressivement
du 17 à 22 UTC au 17 à 24 UTC
Vent 8 kt de est
Evoluant progressivement
du 18 à 04 UTC au 18 à 06 UTC
Vent 3 kt de direction variable

TAF: LEDA 171400Z 1715/1815 25012KT 9999 FEW040 TX28/1813Z TN16/1805Z TEMPO 1721/1723 19007KT BECMG 1722/1724 09008KT BECMG 1804/1806 VRB03KT

Observations et prévisions météorologiques de plus de 4000 aéroports (messages METAR et TAF).

Les stations disponibles sont représentées par des disques jaunes et rouges sur la carte.

Passer la souris dessus pour voir le nom de la station.

Cliquer dessus pour voir les observations et prévisions météorologiques.

Pour changer de carte: cliquez sur les boutons verts avec une croix noire pour zoomer, sur le bouton vert avec un tiret pour effectuer un zoom arrière, ou sur les flèches vertes pour les cartes adjacentes.


METAR-TAF: